Time;durP1;ratioP1;P1;durP2;ratioP2;P2;SDS_P1;SDS_P2;PMS_P1;PMS_P2;Temp;Humidity;BMP_temperature;BMP_pressure;BME280_temperature;BME280_humidity;BME280_pressure;Samples;Min_cycle;Max_cycle;Signal;HPM_P1;HPM_P2
2021/07/13 00:00:30;;;;;;;;;;;20.00;99.90;;;;;;5031987;28;19913;-77
2021/07/13 00:02:57;;;;;;;;;;;19.90;99.90;;;;;;5031507;28;19913;-77
2021/07/13 00:05:23;;;;;;;;;;;19.80;99.90;;;;;;5032133;28;19921;-77
2021/07/13 00:07:49;;;;;;;;;;;19.80;99.90;;;;;;5030865;28;19987;-77
2021/07/13 00:10:16;;;;;;;;;;;19.80;99.90;;;;;;5029833;28;20254;-77
2021/07/13 00:12:41;;;;;;;;;;;19.80;99.90;;;;;;5034477;28;19909;-76
2021/07/13 00:15:26;;;;;;;;;;;19.90;99.90;;;;;;5032699;28;19909;-77
2021/07/13 00:17:52;;;;;;;;;;;19.90;99.90;;;;;;5042604;28;19909;-77
2021/07/13 00:20:18;;;;;;;;;;;20.00;99.90;;;;;;5031708;28;19963;-77
2021/07/13 00:22:44;;;;;;;;;;;20.00;99.90;;;;;;5030417;28;19908;-77
2021/07/13 00:25:10;;;;;;;;;;;20.00;99.90;;;;;;5032250;28;19967;-77
2021/07/13 00:27:36;;;;;;;;;;;20.00;99.90;;;;;;5031311;28;19956;-76
2021/07/13 00:30:02;;;;;;;;;;;20.00;99.90;;;;;;5032880;28;20340;-75
2021/07/13 00:32:28;;;;;;;;;;;20.00;99.90;;;;;;5033721;28;19928;-76
2021/07/13 00:34:53;;;;;;;;;;;19.90;99.90;;;;;;5035027;28;20373;-77
2021/07/13 00:37:19;;;;;;;;;;;19.90;99.90;;;;;;5035057;28;19909;-76
2021/07/13 00:39:44;;;;;;;;;;;19.90;99.90;;;;;;5033924;28;19917;-76
2021/07/13 00:42:13;;;;;;;;;;;19.80;99.90;;;;;;5035308;28;19944;-76
2021/07/13 00:44:41;;;;;;;;;;;19.80;99.90;;;;;;5033388;28;19974;-77
2021/07/13 00:47:06;;;;;;;;;;;19.80;99.90;;;;;;5032859;28;20285;-76
2021/07/13 00:49:32;;;;;;;;;;;19.80;99.90;;;;;;5033304;28;19931;-77
2021/07/13 00:51:59;;;;;;;;;;;19.80;99.90;;;;;;5034260;28;19909;-77
2021/07/13 00:54:25;;;;;;;;;;;19.70;99.90;;;;;;5033843;28;19916;-77
2021/07/13 00:56:52;;;;;;;;;;;19.70;99.90;;;;;;5035075;28;19917;-77
2021/07/13 00:59:17;;;;;;;;;;;19.70;99.90;;;;;;5040361;28;19923;-76
2021/07/13 01:01:46;;;;;;;;;;;19.70;99.90;;;;;;5035743;28;19976;-77
2021/07/13 01:04:12;;;;;;;;;;;19.70;99.90;;;;;;5039610;28;19920;-76
2021/07/13 01:06:56;;;;;;;;;;;19.70;99.90;;;;;;5034947;28;20008;-77
2021/07/13 01:09:31;;;;;;;;;;;19.70;99.90;;;;;;5041603;28;19909;-76
2021/07/13 01:12:08;;;;;;;;;;;19.70;99.90;;;;;;5042646;28;20370;-77
2021/07/13 01:14:35;;;;;;;;;;;19.70;99.90;;;;;;5042236;28;19909;-77
2021/07/13 01:17:06;;;;;;;;;;;19.70;99.90;;;;;;5043757;28;20367;-77
2021/07/13 01:19:35;;;;;;;;;;;19.70;99.90;;;;;;5042052;28;19917;-79
2021/07/13 01:22:08;;;;;;;;;;;19.70;99.90;;;;;;5046331;28;19909;-77
2021/07/13 01:24:40;;;;;;;;;;;19.70;99.90;;;;;;5035800;28;19912;-77
2021/07/13 01:27:09;;;;;;;;;;;19.70;99.90;;;;;;5037190;28;19944;-77
2021/07/13 01:29:36;;;;;;;;;;;19.70;99.90;;;;;;5034455;28;19909;-77
2021/07/13 01:32:02;;;;;;;;;;;19.70;99.90;;;;;;5048313;28;19974;-76
2021/07/13 01:34:30;;;;;;;;;;;19.70;99.90;;;;;;5048165;28;19913;-77
2021/07/13 01:36:57;;;;;;;;;;;19.60;99.90;;;;;;5037932;28;20431;-78
2021/07/13 01:39:24;;;;;;;;;;;19.60;99.90;;;;;;5034463;28;19967;-77
2021/07/13 01:41:52;;;;;;;;;;;19.60;99.90;;;;;;5038020;28;19917;-77
2021/07/13 01:44:19;;;;;;;;;;;19.60;99.90;;;;;;5040765;28;20312;-77
2021/07/13 01:46:45;;;;;;;;;;;19.50;99.90;;;;;;5035331;28;19967;-77
2021/07/13 01:49:11;;;;;;;;;;;19.50;99.90;;;;;;5034018;28;20290;-77
2021/07/13 01:51:36;;;;;;;;;;;19.50;99.90;;;;;;5039906;28;19934;-77
2021/07/13 01:54:07;;;;;;;;;;;19.50;99.90;;;;;;5035958;28;19919;-77
2021/07/13 01:56:34;;;;;;;;;;;19.50;99.90;;;;;;5040920;28;20288;-77
2021/07/13 01:58:59;;;;;;;;;;;19.40;99.90;;;;;;5045091;28;19913;-77
2021/07/13 02:01:26;;;;;;;;;;;19.40;99.90;;;;;;5035500;28;20012;-77
2021/07/13 02:03:53;;;;;;;;;;;19.40;99.90;;;;;;5036133;28;19913;-77
2021/07/13 02:06:21;;;;;;;;;;;19.40;99.90;;;;;;5042589;28;19920;-78
2021/07/13 02:08:48;;;;;;;;;;;19.40;99.90;;;;;;5036613;28;19916;-78
2021/07/13 02:11:14;;;;;;;;;;;19.40;99.90;;;;;;5033754;28;19921;-78
2021/07/13 02:13:39;;;;;;;;;;;19.30;99.90;;;;;;5033652;28;20000;-77
2021/07/13 02:16:05;;;;;;;;;;;19.40;99.90;;;;;;5045140;28;20345;-78
2021/07/13 02:18:31;;;;;;;;;;;19.30;99.90;;;;;;5041787;28;19971;-77
2021/07/13 02:20:56;;;;;;;;;;;19.30;99.90;;;;;;5037091;28;20316;-78
2021/07/13 02:23:22;;;;;;;;;;;19.30;99.90;;;;;;5042791;28;19920;-78
2021/07/13 02:25:48;;;;;;;;;;;19.30;99.90;;;;;;5038843;28;20269;-78
2021/07/13 02:28:18;;;;;;;;;;;19.20;99.90;;;;;;5041927;28;20277;-78
2021/07/13 02:30:49;;;;;;;;;;;19.30;99.90;;;;;;5037425;28;19909;-78
2021/07/13 02:33:26;;;;;;;;;;;19.30;99.90;;;;;;5034890;28;20288;-78
2021/07/13 02:35:54;;;;;;;;;;;19.30;99.90;;;;;;5038754;28;20265;-78
2021/07/13 02:38:20;;;;;;;;;;;19.30;99.90;;;;;;5048095;28;19917;-77
2021/07/13 02:40:46;;;;;;;;;;;19.30;99.90;;;;;;5042969;28;19915;-78
2021/07/13 02:43:12;;;;;;;;;;;19.30;99.90;;;;;;5037076;28;20344;-77
2021/07/13 02:45:37;;;;;;;;;;;19.30;99.90;;;;;;5034795;28;19952;-77
2021/07/13 02:48:03;;;;;;;;;;;19.30;99.90;;;;;;5036101;28;19909;-76
2021/07/13 02:50:30;;;;;;;;;;;19.30;99.90;;;;;;5035579;28;19913;-76
2021/07/13 02:52:57;;;;;;;;;;;19.30;99.90;;;;;;5034050;28;19908;-77
2021/07/13 02:55:22;;;;;;;;;;;19.30;99.90;;;;;;5047558;28;19912;-77
2021/07/13 02:57:49;;;;;;;;;;;19.40;99.90;;;;;;5050375;28;19916;-77
2021/07/13 03:00:15;;;;;;;;;;;19.30;99.90;;;;;;5040648;28;19916;-77
2021/07/13 03:02:42;;;;;;;;;;;19.40;99.90;;;;;;5032417;28;19909;-77
2021/07/13 03:05:10;;;;;;;;;;;19.40;99.90;;;;;;5035088;28;20389;-76
2021/07/13 03:07:36;;;;;;;;;;;19.40;99.90;;;;;;5042829;28;19909;-77
2021/07/13 03:10:02;;;;;;;;;;;19.50;99.90;;;;;;5034549;28;20551;-76
2021/07/13 03:12:28;;;;;;;;;;;19.50;99.90;;;;;;5045405;28;20006;-77
2021/07/13 03:14:55;;;;;;;;;;;19.50;99.90;;;;;;5034336;28;20361;-76
2021/07/13 03:17:20;;;;;;;;;;;19.50;99.90;;;;;;5038410;28;19935;-77
2021/07/13 03:19:46;;;;;;;;;;;19.60;99.90;;;;;;5038519;28;19921;-76
2021/07/13 03:22:38;;;;;;;;;;;19.50;99.90;;;;;;5034123;28;20181;-75
2021/07/13 03:25:04;;;;;;;;;;;19.50;99.90;;;;;;5033450;28;19917;-75
2021/07/13 03:27:31;;;;;;;;;;;19.50;99.90;;;;;;5047456;28;19962;-76
2021/07/13 03:29:58;;;;;;;;;;;19.50;99.90;;;;;;5040123;28;19945;-76
2021/07/13 03:32:23;;;;;;;;;;;19.50;99.90;;;;;;5040441;28;19909;-76
2021/07/13 03:34:50;;;;;;;;;;;19.50;99.90;;;;;;5037787;28;20440;-76
2021/07/13 03:37:17;;;;;;;;;;;19.50;99.90;;;;;;5035957;28;19923;-76
2021/07/13 03:39:43;;;;;;;;;;;19.50;99.90;;;;;;5039223;28;20351;-76
2021/07/13 03:42:08;;;;;;;;;;;19.50;99.90;;;;;;5034501;28;19908;-76
2021/07/13 03:44:34;;;;;;;;;;;19.60;99.90;;;;;;5032710;28;20290;-77
2021/07/13 03:46:59;;;;;;;;;;;19.60;99.90;;;;;;5033053;28;19952;-77
2021/07/13 03:49:25;;;;;;;;;;;19.60;99.90;;;;;;5035948;28;20373;-76
2021/07/13 03:51:51;;;;;;;;;;;19.60;99.90;;;;;;5038343;28;20004;-77
2021/07/13 03:54:18;;;;;;;;;;;19.60;99.90;;;;;;5036889;28;19952;-76
2021/07/13 03:56:45;;;;;;;;;;;19.70;99.90;;;;;;5041489;28;19909;-76
2021/07/13 03:59:11;;;;;;;;;;;19.70;99.90;;;;;;5040342;28;19924;-76
2021/07/13 04:01:37;;;;;;;;;;;19.80;99.90;;;;;;5032756;28;19909;-76
2021/07/13 04:04:03;;;;;;;;;;;19.80;99.90;;;;;;5032611;28;19931;-77
2021/07/13 04:06:29;;;;;;;;;;;19.90;99.90;;;;;;5045952;28;19921;-77
2021/07/13 04:08:54;;;;;;;;;;;19.90;99.90;;;;;;5040754;28;19909;-76
2021/07/13 04:11:20;;;;;;;;;;;20.00;99.90;;;;;;5039873;28;19909;-77
2021/07/13 04:13:45;;;;;;;;;;;20.00;99.90;;;;;;5042232;28;19909;-77
2021/07/13 04:16:11;;;;;;;;;;;20.00;99.90;;;;;;5035953;28;19948;-77
2021/07/13 04:18:37;;;;;;;;;;;20.00;99.90;;;;;;5044371;28;19909;-77
2021/07/13 04:21:02;;;;;;;;;;;20.10;99.90;;;;;;5042536;28;19955;-77
2021/07/13 04:23:28;;;;;;;;;;;20.10;99.90;;;;;;5043520;28;20246;-77
2021/07/13 04:25:53;;;;;;;;;;;20.10;99.90;;;;;;5037302;28;19928;-76
2021/07/13 04:28:19;;;;;;;;;;;20.10;99.90;;;;;;5035944;28;21252;-76
2021/07/13 04:30:44;;;;;;;;;;;20.10;99.90;;;;;;5047715;28;19916;-76
2021/07/13 04:33:10;;;;;;;;;;;20.10;99.90;;;;;;5039335;28;19909;-76
2021/07/13 04:35:35;;;;;;;;;;;20.10;99.90;;;;;;5040355;28;19916;-76
2021/07/13 04:38:01;;;;;;;;;;;20.10;99.90;;;;;;5039997;28;19912;-76
2021/07/13 04:40:26;;;;;;;;;;;20.10;99.90;;;;;;5038134;28;19909;-76
2021/07/13 04:42:52;;;;;;;;;;;20.10;99.90;;;;;;5037556;28;19914;-76
2021/07/13 04:45:18;;;;;;;;;;;20.10;99.90;;;;;;5036458;28;20107;-77
2021/07/13 04:47:44;;;;;;;;;;;20.20;99.90;;;;;;5037707;28;19916;-76
2021/07/13 04:50:10;;;;;;;;;;;20.10;99.90;;;;;;5042134;28;19909;-76
2021/07/13 04:52:35;;;;;;;;;;;20.20;99.90;;;;;;5043473;28;20365;-76
2021/07/13 04:55:01;;;;;;;;;;;20.20;99.90;;;;;;5040979;28;19917;-76
2021/07/13 04:57:27;;;;;;;;;;;20.20;99.90;;;;;;5039807;28;19914;-76
2021/07/13 04:59:53;;;;;;;;;;;20.20;99.90;;;;;;5041944;28;20622;-77
2021/07/13 05:02:19;;;;;;;;;;;20.20;99.90;;;;;;5041513;28;19961;-76
2021/07/13 05:04:44;;;;;;;;;;;20.20;99.90;;;;;;5046367;28;19920;-76
2021/07/13 05:07:10;;;;;;;;;;;20.20;99.90;;;;;;5039221;28;19909;-76
2021/07/13 05:09:35;;;;;;;;;;;20.20;99.90;;;;;;5047332;28;19916;-76
2021/07/13 05:12:01;;;;;;;;;;;20.10;99.90;;;;;;5043318;28;19909;-76
2021/07/13 05:14:27;;;;;;;;;;;20.20;99.90;;;;;;5049620;28;19913;-76
2021/07/13 05:16:52;;;;;;;;;;;20.10;99.90;;;;;;5038625;28;19913;-76
2021/07/13 05:19:18;;;;;;;;;;;20.20;99.90;;;;;;5042393;28;19909;-77
2021/07/13 05:21:48;;;;;;;;;;;20.20;99.90;;;;;;5039200;28;19908;-77
2021/07/13 05:24:14;;;;;;;;;;;20.20;99.90;;;;;;5039951;28;20024;-76
2021/07/13 05:26:39;;;;;;;;;;;20.20;99.90;;;;;;5045601;28;20003;-76
2021/07/13 05:29:06;;;;;;;;;;;20.10;99.90;;;;;;5044184;28;19988;-76
2021/07/13 05:31:32;;;;;;;;;;;20.20;99.90;;;;;;5044938;28;20408;-76
2021/07/13 05:33:58;;;;;;;;;;;20.20;99.90;;;;;;5041262;28;20285;-76
2021/07/13 05:36:24;;;;;;;;;;;20.20;99.90;;;;;;5039698;28;19909;-76
2021/07/13 05:38:49;;;;;;;;;;;20.30;99.90;;;;;;5042999;28;20003;-76
2021/07/13 05:41:15;;;;;;;;;;;20.30;99.90;;;;;;5042258;28;19988;-76
2021/07/13 05:43:41;;;;;;;;;;;20.30;99.90;;;;;;5038135;28;19951;-76
2021/07/13 05:46:07;;;;;;;;;;;20.30;99.90;;;;;;5042061;28;20305;-76
2021/07/13 05:48:33;;;;;;;;;;;20.30;99.90;;;;;;5040415;28;19916;-76
2021/07/13 05:50:58;;;;;;;;;;;20.30;99.90;;;;;;5037633;28;19913;-75
2021/07/13 05:53:23;;;;;;;;;;;20.30;99.90;;;;;;5037825;28;19963;-78
2021/07/13 05:55:50;;;;;;;;;;;20.30;99.90;;;;;;5041778;28;19977;-77
2021/07/13 05:58:19;;;;;;;;;;;20.30;99.90;;;;;;5041410;28;19955;-77
2021/07/13 06:00:46;;;;;;;;;;;20.30;99.90;;;;;;5044582;28;19959;-77
2021/07/13 06:03:11;;;;;;;;;;;20.30;99.90;;;;;;5041103;28;19909;-76
2021/07/13 06:05:38;;;;;;;;;;;20.30;99.90;;;;;;5042109;28;20003;-77
2021/07/13 06:08:04;;;;;;;;;;;20.30;99.90;;;;;;5045021;28;19970;-77
2021/07/13 06:10:29;;;;;;;;;;;20.30;99.90;;;;;;5042045;28;19995;-77
2021/07/13 06:12:55;;;;;;;;;;;20.30;99.90;;;;;;5037327;28;19916;-78
2021/07/13 06:15:20;;;;;;;;;;;20.30;99.90;;;;;;5035100;28;19916;-77
2021/07/13 06:17:46;;;;;;;;;;;20.40;99.90;;;;;;5033442;28;20365;-79
2021/07/13 06:20:12;;;;;;;;;;;20.30;99.90;;;;;;5034829;28;19913;-78
2021/07/13 06:22:37;;;;;;;;;;;20.40;99.90;;;;;;5049280;28;19915;-77
2021/07/13 06:25:04;;;;;;;;;;;20.40;99.90;;;;;;5034610;28;19917;-77
2021/07/13 06:27:29;;;;;;;;;;;20.40;99.90;;;;;;5034558;28;19909;-78
2021/07/13 06:29:55;;;;;;;;;;;20.40;99.90;;;;;;5035110;28;20250;-78
2021/07/13 06:32:20;;;;;;;;;;;20.30;99.90;;;;;;5034600;28;19909;-78
2021/07/13 06:34:46;;;;;;;;;;;20.40;99.90;;;;;;5034449;28;19909;-77
2021/07/13 06:37:11;;;;;;;;;;;20.30;99.90;;;;;;5034574;28;19913;-78
2021/07/13 06:39:36;;;;;;;;;;;20.40;99.90;;;;;;5032919;28;19909;-77
2021/07/13 06:42:02;;;;;;;;;;;20.40;99.90;;;;;;5034783;28;19917;-78
2021/07/13 06:44:28;;;;;;;;;;;20.40;99.90;;;;;;5034075;28;20281;-77
2021/07/13 06:46:53;;;;;;;;;;;20.40;99.90;;;;;;5046429;28;21508;-78
2021/07/13 06:49:19;;;;;;;;;;;20.40;99.90;;;;;;5030294;28;19917;-77
2021/07/13 06:51:44;;;;;;;;;;;20.40;99.90;;;;;;5034352;28;19913;-73
2021/07/13 06:54:10;;;;;;;;;;;20.40;99.90;;;;;;5037773;28;20316;-77
2021/07/13 06:56:35;;;;;;;;;;;20.40;99.90;;;;;;5037328;28;19956;-78
2021/07/13 06:59:01;;;;;;;;;;;20.30;99.90;;;;;;5049184;28;19909;-78
2021/07/13 07:01:26;;;;;;;;;;;20.40;99.90;;;;;;5047902;28;20357;-78
2021/07/13 07:03:53;;;;;;;;;;;20.40;99.90;;;;;;5042938;28;20425;-78
2021/07/13 07:06:18;;;;;;;;;;;20.40;99.90;;;;;;5034407;28;20019;-78
2021/07/13 07:08:44;;;;;;;;;;;20.40;99.90;;;;;;5038540;28;19917;-79
2021/07/13 07:11:09;;;;;;;;;;;20.40;99.90;;;;;;5042690;28;19915;-79
2021/07/13 07:13:35;;;;;;;;;;;20.50;99.90;;;;;;5035077;28;19909;-78
2021/07/13 07:16:01;;;;;;;;;;;20.60;99.90;;;;;;5034396;28;19909;-79
2021/07/13 07:18:26;;;;;;;;;;;20.50;99.90;;;;;;5040837;28;19917;-78
2021/07/13 07:20:52;;;;;;;;;;;20.60;99.90;;;;;;5034428;28;19913;-78
2021/07/13 07:23:17;;;;;;;;;;;20.60;99.90;;;;;;5032247;28;20370;-84
2021/07/13 07:25:43;;;;;;;;;;;20.60;99.90;;;;;;5032233;28;19913;-83
2021/07/13 07:28:11;;;;;;;;;;;20.50;99.90;;;;;;5033777;28;20011;-84
2021/07/13 07:30:37;;;;;;;;;;;20.50;99.90;;;;;;5032091;28;19912;-79
2021/07/13 07:33:03;;;;;;;;;;;20.40;99.90;;;;;;5030929;28;20377;-79
2021/07/13 07:35:29;;;;;;;;;;;20.40;99.90;;;;;;5027050;28;19909;-79
2021/07/13 07:37:54;;;;;;;;;;;20.40;99.90;;;;;;5027641;28;21327;-83
2021/07/13 07:40:21;;;;;;;;;;;20.40;99.90;;;;;;5030553;28;19917;-84
2021/07/13 07:42:48;;;;;;;;;;;20.40;99.90;;;;;;5032070;28;19913;-80
2021/07/13 07:45:14;;;;;;;;;;;20.40;99.90;;;;;;5027257;28;19945;-79
2021/07/13 07:47:40;;;;;;;;;;;20.40;99.90;;;;;;5041597;28;19963;-76
2021/07/13 07:50:06;;;;;;;;;;;20.40;99.90;;;;;;5036395;28;19909;-78
2021/07/13 07:52:31;;;;;;;;;;;20.40;99.90;;;;;;5045267;28;19931;-78
2021/07/13 07:54:57;;;;;;;;;;;20.50;99.90;;;;;;5038117;28;19897;-78
2021/07/13 07:57:23;;;;;;;;;;;20.50;99.90;;;;;;5045464;28;19889;-79
2021/07/13 07:59:48;;;;;;;;;;;20.50;99.90;;;;;;5052181;28;20487;-78
2021/07/13 08:02:14;;;;;;;;;;;20.60;99.90;;;;;;5068891;28;19913;-78
2021/07/13 08:04:40;;;;;;;;;;;20.50;99.90;;;;;;5058415;28;19912;-78
2021/07/13 08:07:05;;;;;;;;;;;20.60;99.90;;;;;;5054901;28;19975;-78
2021/07/13 08:09:31;;;;;;;;;;;20.60;99.90;;;;;;5058508;28;19913;-78
2021/07/13 08:11:56;;;;;;;;;;;20.60;99.90;;;;;;5073801;28;19928;-78
2021/07/13 08:14:21;;;;;;;;;;;20.60;99.90;;;;;;5077855;28;19968;-78
2021/07/13 08:16:49;;;;;;;;;;;20.60;99.90;;;;;;5077416;28;19964;-78
2021/07/13 08:19:15;;;;;;;;;;;20.60;99.90;;;;;;5077346;28;19919;-78
2021/07/13 08:21:40;;;;;;;;;;;20.70;99.90;;;;;;5079053;28;19928;-79
2021/07/13 08:24:08;;;;;;;;;;;20.70;99.90;;;;;;5079592;28;19917;-79
2021/07/13 08:26:33;;;;;;;;;;;20.70;99.90;;;;;;5079373;28;20007;-78
2021/07/13 08:28:59;;;;;;;;;;;20.70;99.90;;;;;;5079208;28;19939;-78
2021/07/13 08:31:24;;;;;;;;;;;20.70;99.90;;;;;;5078832;28;19896;-78
2021/07/13 08:33:50;;;;;;;;;;;20.80;99.90;;;;;;5079498;28;19909;-79
2021/07/13 08:36:15;;;;;;;;;;;20.70;99.90;;;;;;5080139;28;19912;-77
2021/07/13 08:38:41;;;;;;;;;;;20.70;99.90;;;;;;5080137;28;19920;-79
2021/07/13 08:41:06;;;;;;;;;;;20.60;99.90;;;;;;5074371;28;19908;-79
2021/07/13 08:43:32;;;;;;;;;;;20.60;99.90;;;;;;5078526;28;19901;-78
2021/07/13 08:45:58;;;;;;;;;;;20.70;99.90;;;;;;5080356;28;19909;-78
2021/07/13 08:48:24;;;;;;;;;;;20.70;99.90;;;;;;5077013;28;19912;-78
2021/07/13 08:50:56;;;;;;;;;;;20.80;99.90;;;;;;5078110;28;19900;-78
2021/07/13 08:53:22;;;;;;;;;;;20.80;99.90;;;;;;5080426;28;19944;-78
2021/07/13 08:55:47;;;;;;;;;;;20.80;99.90;;;;;;5078876;28;19928;-78
2021/07/13 08:58:16;;;;;;;;;;;20.80;99.90;;;;;;5080628;28;19920;-77
2021/07/13 09:00:42;;;;;;;;;;;20.70;99.90;;;;;;5071234;28;19993;-78
2021/07/13 09:03:11;;;;;;;;;;;20.70;99.90;;;;;;5061291;28;19897;-78
2021/07/13 09:05:40;;;;;;;;;;;20.80;99.90;;;;;;5060484;28;19905;-78
2021/07/13 09:08:22;;;;;;;;;;;20.80;99.90;;;;;;5061084;28;19996;-79
2021/07/13 09:11:01;;;;;;;;;;;20.70;99.90;;;;;;5060038;28;19919;-77
2021/07/13 09:13:28;;;;;;;;;;;20.70;99.90;;;;;;5060593;28;19908;-78
2021/07/13 09:15:56;;;;;;;;;;;20.70;99.90;;;;;;5060086;28;19920;-78
2021/07/13 09:18:33;;;;;;;;;;;20.80;99.90;;;;;;5060239;28;19913;-78
2021/07/13 09:21:24;;;;;;;;;;;20.90;99.90;;;;;;5059802;28;19897;-77
2021/07/13 09:23:59;;;;;;;;;;;21.00;99.90;;;;;;5058860;28;19897;-78
2021/07/13 09:26:34;;;;;;;;;;;20.90;99.90;;;;;;5059269;28;19921;-76
2021/07/13 09:29:00;;;;;;;;;;;20.90;99.90;;;;;;5052357;28;20268;-78
2021/07/13 09:31:25;;;;;;;;;;;20.90;99.90;;;;;;5043992;28;19909;-78
2021/07/13 09:33:51;;;;;;;;;;;20.90;99.90;;;;;;5042945;28;19980;-79
2021/07/13 09:36:18;;;;;;;;;;;21.00;99.90;;;;;;5057833;28;19908;-78
2021/07/13 09:38:44;;;;;;;;;;;21.00;99.90;;;;;;5042879;28;19944;-78
2021/07/13 09:41:10;;;;;;;;;;;21.00;99.90;;;;;;5041244;28;19916;-79
2021/07/13 09:43:39;;;;;;;;;;;20.90;99.90;;;;;;5040570;28;19909;-78
2021/07/13 09:46:20;;;;;;;;;;;20.80;99.90;;;;;;5038987;28;19913;-79
2021/07/13 09:49:04;;;;;;;;;;;20.70;99.90;;;;;;5042350;28;19917;-79
2021/07/13 09:51:29;;;;;;;;;;;20.60;99.90;;;;;;5038489;28;19915;-81
2021/07/13 09:53:55;;;;;;;;;;;20.60;99.90;;;;;;5039426;28;19944;-80
2021/07/13 09:56:37;;;;;;;;;;;20.60;99.90;;;;;;5038893;28;19905;-83
2021/07/13 09:59:02;;;;;;;;;;;20.60;99.90;;;;;;5056315;28;19913;-79
2021/07/13 10:01:28;;;;;;;;;;;20.60;99.90;;;;;;5038405;28;20376;-82
2021/07/13 10:03:53;;;;;;;;;;;20.60;99.90;;;;;;5037642;28;20016;-80
2021/07/13 10:06:20;;;;;;;;;;;20.60;99.90;;;;;;5036657;28;19917;-79
2021/07/13 10:08:46;;;;;;;;;;;20.60;99.90;;;;;;5052266;28;19908;-81
2021/07/13 10:11:12;;;;;;;;;;;20.60;99.90;;;;;;5038904;28;19909;-84
2021/07/13 10:13:37;;;;;;;;;;;20.60;99.90;;;;;;5035544;28;19916;-78
2021/07/13 10:16:03;;;;;;;;;;;20.70;99.90;;;;;;5036603;28;19912;-85
2021/07/13 10:18:28;;;;;;;;;;;20.70;99.90;;;;;;5038525;28;19909;-83
2021/07/13 10:20:54;;;;;;;;;;;20.70;99.90;;;;;;5036289;28;20353;-81
2021/07/13 10:23:20;;;;;;;;;;;20.70;99.90;;;;;;5037076;28;19909;-79
2021/07/13 10:25:46;;;;;;;;;;;20.70;99.90;;;;;;5038556;28;19912;-78
2021/07/13 10:28:12;;;;;;;;;;;20.70;99.90;;;;;;5045124;28;20332;-84
2021/07/13 10:30:42;;;;;;;;;;;20.60;99.90;;;;;;5055677;28;20254;-81
2021/07/13 10:33:27;;;;;;;;;;;20.60;99.90;;;;;;5054711;28;19912;-85
2021/07/13 10:35:53;;;;;;;;;;;20.60;99.90;;;;;;5048700;28;20403;-84
2021/07/13 10:38:25;;;;;;;;;;;20.60;99.90;;;;;;5044024;28;19909;-80
2021/07/13 10:40:54;;;;;;;;;;;20.60;99.90;;;;;;5049055;28;19955;-81
2021/07/13 10:43:21;;;;;;;;;;;20.60;99.90;;;;;;5035071;28;19909;-82
2021/07/13 10:45:47;;;;;;;;;;;20.60;99.90;;;;;;5034720;28;19921;-81
2021/07/13 10:48:16;;;;;;;;;;;20.60;99.90;;;;;;5035591;28;19909;-83
2021/07/13 10:50:52;;;;;;;;;;;20.50;99.90;;;;;;5034008;28;20326;-83
2021/07/13 10:53:22;;;;;;;;;;;20.40;99.90;;;;;;5035057;28;20284;-82
2021/07/13 10:55:55;;;;;;;;;;;20.50;99.90;;;;;;5034713;28;19909;-82
2021/07/13 10:58:21;;;;;;;;;;;20.50;99.90;;;;;;5032919;28;19917;-82
2021/07/13 11:00:47;;;;;;;;;;;20.50;99.90;;;;;;5036664;28;19917;-83
2021/07/13 11:03:37;;;;;;;;;;;20.50;99.90;;;;;;5033459;28;19905;-83
2021/07/13 11:06:08;;;;;;;;;;;20.40;99.90;;;;;;5034902;28;19921;-81
2021/07/13 11:08:59;;;;;;;;;;;20.40;99.90;;;;;;5032676;28;19912;-81
2021/07/13 11:11:28;;;;;;;;;;;20.40;99.90;;;;;;5034583;28;19916;-79
2021/07/13 11:13:53;;;;;;;;;;;20.30;99.90;;;;;;5032121;28;20293;-80
2021/07/13 11:16:23;;;;;;;;;;;20.40;99.90;;;;;;5034385;28;19909;-82
2021/07/13 11:18:48;;;;;;;;;;;20.30;99.90;;;;;;5036907;28;19916;-81
2021/07/13 11:21:24;;;;;;;;;;;20.40;99.90;;;;;;5033313;28;19909;-82
2021/07/13 11:23:52;;;;;;;;;;;20.40;99.90;;;;;;5033546;28;19916;-82
2021/07/13 11:26:19;;;;;;;;;;;20.40;99.90;;;;;;5033130;28;19967;-83
2021/07/13 11:28:48;;;;;;;;;;;20.30;99.90;;;;;;5034471;28;19962;-83
2021/07/13 11:31:19;;;;;;;;;;;20.30;99.90;;;;;;5032824;28;19909;-83
2021/07/13 11:33:55;;;;;;;;;;;20.30;99.90;;;;;;5033907;28;19916;-82
2021/07/13 11:36:24;;;;;;;;;;;20.30;99.90;;;;;;5046464;28;19924;-82
2021/07/13 11:38:50;;;;;;;;;;;20.30;99.90;;;;;;5033195;28;19958;-83
2021/07/13 11:41:16;;;;;;;;;;;20.20;99.90;;;;;;5032352;28;19909;-84
2021/07/13 11:43:42;;;;;;;;;;;20.10;99.90;;;;;;5033757;28;19963;-83
2021/07/13 11:46:15;;;;;;;;;;;20.10;99.90;;;;;;5032460;28;20289;-82
2021/07/13 11:48:41;;;;;;;;;;;20.10;99.90;;;;;;5033802;28;19909;-83
2021/07/13 11:51:10;;;;;;;;;;;20.20;99.90;;;;;;5033321;28;19943;-83
2021/07/13 11:53:35;;;;;;;;;;;20.10;99.90;;;;;;5047655;28;19952;-82
2021/07/13 11:56:01;;;;;;;;;;;20.10;99.90;;;;;;5048652;28;19909;-83
2021/07/13 11:58:31;;;;;;;;;;;20.10;99.90;;;;;;5044795;28;19938;-81
2021/07/13 12:01:15;;;;;;;;;;;20.10;99.90;;;;;;5033444;28;20369;-83
2021/07/13 12:03:41;;;;;;;;;;;20.10;99.90;;;;;;5031873;28;20312;-81
2021/07/13 12:06:07;;;;;;;;;;;20.20;99.90;;;;;;5033785;28;19971;-83
2021/07/13 12:08:33;;;;;;;;;;;20.10;99.90;;;;;;5033591;28;19916;-84
2021/07/13 12:10:59;;;;;;;;;;;20.20;99.90;;;;;;5033832;28;19909;-86
2021/07/13 12:13:24;;;;;;;;;;;20.20;99.90;;;;;;5034496;28;19913;-84
2021/07/13 12:15:50;;;;;;;;;;;20.20;99.90;;;;;;5033365;28;19938;-84
2021/07/13 12:18:15;;;;;;;;;;;20.20;99.90;;;;;;5047728;28;19916;-85
2021/07/13 12:20:41;;;;;;;;;;;20.20;99.90;;;;;;5035763;28;20012;-79
2021/07/13 12:23:06;;;;;;;;;;;20.20;99.90;;;;;;5033172;28;19909;-79
2021/07/13 12:25:32;;;;;;;;;;;20.20;99.90;;;;;;5039654;28;19917;-79
2021/07/13 12:28:12;;;;;;;;;;;20.20;99.90;;;;;;5042195;28;20286;-81
2021/07/13 12:30:38;;;;;;;;;;;20.30;99.90;;;;;;5052676;28;19908;-79
2021/07/13 12:33:04;;;;;;;;;;;20.20;99.90;;;;;;5035449;28;20007;-78
2021/07/13 12:35:30;;;;;;;;;;;20.20;99.90;;;;;;5036914;28;19909;-79
2021/07/13 12:37:55;;;;;;;;;;;20.20;99.90;;;;;;5036777;28;20320;-78
2021/07/13 12:40:27;;;;;;;;;;;20.30;99.90;;;;;;5036590;28;20369;-78
2021/07/13 12:42:53;;;;;;;;;;;20.30;99.90;;;;;;5036209;28;19909;-79
2021/07/13 12:45:23;;;;;;;;;;;20.30;99.90;;;;;;5036394;28;20293;-78
2021/07/13 12:47:54;;;;;;;;;;;20.20;99.90;;;;;;5035071;28;19916;-79
2021/07/13 12:50:29;;;;;;;;;;;20.20;99.90;;;;;;5049702;28;19988;-79
2021/07/13 12:53:06;;;;;;;;;;;20.30;99.90;;;;;;5030779;28;20167;-81
2021/07/13 12:55:33;;;;;;;;;;;20.30;99.90;;;;;;5045793;28;19917;-78
2021/07/13 12:58:19;;;;;;;;;;;20.40;99.90;;;;;;5047114;28;19928;-83
2021/07/13 13:00:46;;;;;;;;;;;20.30;99.90;;;;;;5051244;28;19917;-82
2021/07/13 13:03:15;;;;;;;;;;;20.40;99.90;;;;;;5042325;28;19912;-83
2021/07/13 13:05:44;;;;;;;;;;;20.30;99.90;;;;;;5032593;28;19921;-83
2021/07/13 13:08:11;;;;;;;;;;;20.20;99.90;;;;;;5037227;28;19917;-83
2021/07/13 13:10:41;;;;;;;;;;;20.30;99.90;;;;;;5046087;28;19909;-82
2021/07/13 13:13:07;;;;;;;;;;;20.20;99.90;;;;;;5049110;28;20365;-82
2021/07/13 13:15:33;;;;;;;;;;;20.20;99.90;;;;;;5040058;28;19909;-79
2021/07/13 13:18:00;;;;;;;;;;;20.20;99.90;;;;;;5038411;28;19915;-83
2021/07/13 13:20:26;;;;;;;;;;;20.30;99.90;;;;;;5037761;28;20425;-82
2021/07/13 13:22:52;;;;;;;;;;;20.20;99.90;;;;;;5047667;28;19940;-83
2021/07/13 13:25:19;;;;;;;;;;;20.30;99.90;;;;;;5046122;28;20361;-82
2021/07/13 13:27:44;;;;;;;;;;;20.20;99.90;;;;;;5035847;28;19933;-83
2021/07/13 13:30:11;;;;;;;;;;;20.20;99.90;;;;;;5044364;28;19909;-78
2021/07/13 13:32:37;;;;;;;;;;;20.20;99.90;;;;;;5038342;28;19924;-82
2021/07/13 13:35:04;;;;;;;;;;;20.20;99.90;;;;;;5039354;28;19909;-82
2021/07/13 13:37:38;;;;;;;;;;;20.20;99.90;;;;;;5048800;28;19909;-77
2021/07/13 13:40:04;;;;;;;;;;;20.20;99.90;;;;;;5039753;28;20003;-79
2021/07/13 13:42:29;;;;;;;;;;;20.20;99.90;;;;;;5042491;28;20009;-81
2021/07/13 13:44:55;;;;;;;;;;;20.10;99.90;;;;;;5044908;28;19919;-81
2021/07/13 13:47:20;;;;;;;;;;;20.10;99.90;;;;;;5047342;28;19909;-80
2021/07/13 13:49:46;;;;;;;;;;;20.10;99.90;;;;;;5034462;28;19909;-80
2021/07/13 13:52:11;;;;;;;;;;;20.10;99.90;;;;;;5051515;28;19974;-80
2021/07/13 13:54:37;;;;;;;;;;;20.10;99.90;;;;;;5044298;28;19952;-81
2021/07/13 13:57:03;;;;;;;;;;;20.10;99.90;;;;;;5034975;28;19921;-81
2021/07/13 13:59:28;;;;;;;;;;;20.20;99.90;;;;;;5038470;28;19974;-81
2021/07/13 14:01:54;;;;;;;;;;;20.10;99.90;;;;;;5037001;28;19909;-81
2021/07/13 14:04:19;;;;;;;;;;;20.10;99.90;;;;;;5034946;28;19912;-82
2021/07/13 14:06:45;;;;;;;;;;;20.10;99.90;;;;;;5035356;28;19978;-81
2021/07/13 14:09:11;;;;;;;;;;;19.90;99.90;;;;;;5050056;28;19942;-81
2021/07/13 14:11:36;;;;;;;;;;;19.90;99.90;;;;;;5049771;28;20365;-83
2021/07/13 14:14:03;;;;;;;;;;;19.90;99.90;;;;;;5034020;28;19913;-84
2021/07/13 14:16:28;;;;;;;;;;;19.90;99.90;;;;;;5049633;28;19996;-81